Time,TemperatureF,DewpointF,PressureIn,WindDirection,WindDirectionDegrees,WindSpeedMPH,WindSpeedGustMPH,Humidity,HourlyPrecipIn,Conditions,Clouds,dailyrainin,SolarRadiationWatts/m^2,SoftwareType,DateUTC
2013-04-21 00:22:00,50.0,46.0,-100.00,ESE,115,6.0,11.0,87,0.00,,,0.00,0.000000,,2013-04-21 10:22:00,
2013-04-21 00:32:00,50.0,46.0,-100.00,ESE,115,6.0,11.0,87,0.00,,,0.00,0.000000,,2013-04-21 10:32:00,
2013-04-21 00:42:00,50.0,46.0,-100.00,ESE,115,6.0,11.0,87,0.00,,,0.00,0.000000,,2013-04-21 10:42:00,
2013-04-21 00:52:00,50.0,46.0,-100.00,ESE,115,6.0,11.0,87,0.00,,,0.00,0.000000,,2013-04-21 10:52:00,
2013-04-21 01:22:00,47.0,36.0,-100.00,ESE,104,7.0,10.0,66,0.00,,,0.00,0.000000,,2013-04-21 11:22:00,
2013-04-21 01:33:00,47.0,36.0,-100.00,ESE,104,7.0,10.0,66,0.00,,,0.00,0.000000,,2013-04-21 11:33:00,
2013-04-21 01:42:00,47.0,36.0,-100.00,ESE,104,7.0,10.0,66,0.00,,,0.00,0.000000,,2013-04-21 11:42:00,
2013-04-21 01:52:00,47.0,36.0,-100.00,ESE,104,7.0,10.0,66,0.00,,,0.00,0.000000,,2013-04-21 11:52:00,
2013-04-21 02:22:00,46.0,38.0,-100.00,ESE,118,7.0,11.0,73,0.00,,,0.00,0.000000,,2013-04-21 12:22:00,
2013-04-21 02:32:00,46.0,38.0,-100.00,ESE,118,7.0,11.0,73,0.00,,,0.00,0.000000,,2013-04-21 12:32:00,
2013-04-21 02:42:00,46.0,38.0,-100.00,ESE,118,7.0,11.0,73,0.00,,,0.00,0.000000,,2013-04-21 12:42:00,
2013-04-21 02:52:00,46.0,38.0,-100.00,ESE,118,7.0,11.0,73,0.00,,,0.00,0.000000,,2013-04-21 12:52:00,
2013-04-21 03:21:00,46.0,36.0,-100.00,ESE,113,9.0,12.0,69,0.00,,,0.00,0.000000,,2013-04-21 13:21:00,
2013-04-21 03:32:00,46.0,36.0,-100.00,ESE,113,9.0,12.0,69,0.00,,,0.00,0.000000,,2013-04-21 13:32:00,
2013-04-21 03:42:00,46.0,36.0,-100.00,ESE,113,9.0,12.0,69,0.00,,,0.00,0.000000,,2013-04-21 13:42:00,
2013-04-21 03:52:00,46.0,36.0,-100.00,ESE,113,9.0,12.0,69,0.00,,,0.00,0.000000,,2013-04-21 13:52:00,
2013-04-21 04:21:00,47.0,37.0,-100.00,ESE,110,8.0,13.0,67,0.00,,,0.00,0.000000,,2013-04-21 14:21:00,
2013-04-21 04:32:00,47.0,37.0,-100.00,ESE,110,8.0,13.0,67,0.00,,,0.00,0.000000,,2013-04-21 14:32:00,
2013-04-21 04:42:00,47.0,37.0,-100.00,ESE,110,8.0,13.0,67,0.00,,,0.00,0.000000,,2013-04-21 14:42:00,
2013-04-21 04:52:00,47.0,37.0,-100.00,ESE,110,8.0,13.0,67,0.00,,,0.00,0.000000,,2013-04-21 14:52:00,
2013-04-21 05:22:00,46.0,37.0,-100.00,ESE,122,8.0,14.0,70,0.00,,,0.00,0.000000,,2013-04-21 15:22:00,
2013-04-21 05:33:00,46.0,37.0,-100.00,ESE,122,8.0,14.0,70,0.00,,,0.00,0.000000,,2013-04-21 15:33:00,
2013-04-21 05:42:00,46.0,37.0,-100.00,ESE,122,8.0,14.0,70,0.00,,,0.00,0.000000,,2013-04-21 15:42:00,
2013-04-21 05:53:00,46.0,37.0,-100.00,ESE,122,8.0,14.0,70,0.00,,,0.00,0.000000,,2013-04-21 15:53:00,
2013-04-21 06:22:00,46.0,41.0,-100.00,SE,135,6.0,11.0,83,0.00,,,0.00,0.000000,,2013-04-21 16:22:00,
2013-04-21 06:32:00,46.0,41.0,-100.00,SE,135,6.0,11.0,83,0.00,,,0.00,0.000000,,2013-04-21 16:32:00,
2013-04-21 06:42:00,46.0,41.0,-100.00,SE,135,6.0,11.0,83,0.00,,,0.00,0.000000,,2013-04-21 16:42:00,
2013-04-21 06:52:00,46.0,41.0,-100.00,SE,135,6.0,11.0,83,0.00,,,0.00,0.000000,,2013-04-21 16:52:00,
2013-04-21 07:22:00,53.0,39.0,-100.00,SE,138,6.0,11.0,59,0.00,,,0.00,85.000000,,2013-04-21 17:22:00,
2013-04-21 07:32:00,53.0,39.0,-100.00,SE,138,6.0,11.0,59,0.00,,,0.00,85.000000,,2013-04-21 17:32:00,
2013-04-21 07:42:00,53.0,39.0,-100.00,SE,138,6.0,11.0,59,0.00,,,0.00,85.000000,,2013-04-21 17:42:00,
2013-04-21 07:52:00,53.0,39.0,-100.00,SE,138,6.0,11.0,59,0.00,,,0.00,85.000000,,2013-04-21 17:52:00,
2013-04-21 08:22:00,60.0,48.0,-100.00,East,97,7.0,13.0,64,0.00,,,0.00,421.000000,,2013-04-21 18:22:00,
2013-04-21 08:32:00,60.0,48.0,-100.00,East,97,7.0,13.0,64,0.00,,,0.00,421.000000,,2013-04-21 18:32:00,
2013-04-21 08:42:00,60.0,48.0,-100.00,East,97,7.0,13.0,64,0.00,,,0.00,421.000000,,2013-04-21 18:42:00,
2013-04-21 08:52:00,60.0,48.0,-100.00,East,97,7.0,13.0,64,0.00,,,0.00,421.000000,,2013-04-21 18:52:00,
2013-04-21 09:21:00,67.0,43.0,-100.00,ESE,121,4.0,11.0,42,0.00,,,0.00,728.000000,,2013-04-21 19:21:00,
2013-04-21 09:32:00,67.0,43.0,-100.00,ESE,121,4.0,11.0,42,0.00,,,0.00,728.000000,,2013-04-21 19:32:00,
2013-04-21 09:42:00,67.0,43.0,-100.00,ESE,121,4.0,11.0,42,0.00,,,0.00,728.000000,,2013-04-21 19:42:00,
2013-04-21 09:52:00,67.0,43.0,-100.00,ESE,121,4.0,11.0,42,0.00,,,0.00,728.000000,,2013-04-21 19:52:00,
2013-04-21 10:22:00,69.0,37.0,-100.00,North,11,6.0,16.0,31,0.00,,,0.00,986.000000,,2013-04-21 20:22:00,
2013-04-21 10:31:00,69.0,37.0,-100.00,North,11,6.0,16.0,31,0.00,,,0.00,986.000000,,2013-04-21 20:31:00,
2013-04-21 10:41:00,69.0,37.0,-100.00,North,11,6.0,16.0,31,0.00,,,0.00,986.000000,,2013-04-21 20:41:00,
2013-04-21 10:51:00,69.0,37.0,-100.00,North,11,6.0,16.0,31,0.00,,,0.00,986.000000,,2013-04-21 20:51:00,
2013-04-21 11:21:00,66.0,44.0,-100.00,WNW,293,12.0,21.0,45,0.00,,,0.00,1193.000000,,2013-04-21 21:21:00,
2013-04-21 11:33:00,66.0,44.0,-100.00,WNW,293,12.0,21.0,45,0.00,,,0.00,1193.000000,,2013-04-21 21:33:00,
2013-04-21 11:43:00,66.0,44.0,-100.00,WNW,293,12.0,21.0,45,0.00,,,0.00,1193.000000,,2013-04-21 21:43:00,
2013-04-21 11:53:00,66.0,44.0,-100.00,WNW,293,12.0,21.0,45,0.00,,,0.00,1193.000000,,2013-04-21 21:53:00,
2013-04-21 12:22:00,65.0,45.0,-100.00,WNW,299,9.0,21.0,49,0.00,,,0.00,1293.000000,,2013-04-21 22:22:00,
2013-04-21 12:33:00,65.0,45.0,-100.00,WNW,299,9.0,21.0,49,0.00,,,0.00,1293.000000,,2013-04-21 22:33:00,
2013-04-21 12:43:00,65.0,45.0,-100.00,WNW,299,9.0,21.0,49,0.00,,,0.00,1293.000000,,2013-04-21 22:43:00,
2013-04-21 12:52:00,65.0,45.0,-100.00,WNW,299,9.0,21.0,49,0.00,,,0.00,1293.000000,,2013-04-21 22:52:00,
2013-04-21 13:22:00,69.0,48.0,-100.00,WNW,284,10.0,27.0,48,0.00,,,0.00,1342.000000,,2013-04-21 23:22:00,
2013-04-21 13:32:00,69.0,48.0,-100.00,WNW,284,10.0,27.0,48,0.00,,,0.00,1342.000000,,2013-04-21 23:32:00,
2013-04-21 13:42:00,69.0,48.0,-100.00,WNW,284,10.0,27.0,48,0.00,,,0.00,1342.000000,,2013-04-21 23:42:00,
2013-04-21 13:52:00,69.0,48.0,-100.00,WNW,284,10.0,27.0,48,0.00,,,0.00,1342.000000,,2013-04-21 23:52:00,
2013-04-21 14:21:00,66.0,51.0,-100.00,WNW,301,14.0,24.0,58,0.00,,,0.00,1224.000000,,2013-04-22 00:21:00,
2013-04-21 14:32:00,66.0,51.0,-100.00,WNW,301,14.0,24.0,58,0.00,,,0.00,1224.000000,,2013-04-22 00:32:00,
2013-04-21 14:42:00,66.0,51.0,-100.00,WNW,301,14.0,24.0,58,0.00,,,0.00,1224.000000,,2013-04-22 00:42:00,
2013-04-21 14:51:00,66.0,51.0,-100.00,WNW,301,14.0,24.0,58,0.00,,,0.00,1224.000000,,2013-04-22 00:51:00,
2013-04-21 15:21:00,64.0,52.0,-100.00,WNW,300,12.0,24.0,64,0.00,,,0.00,982.000000,,2013-04-22 01:21:00,
2013-04-21 15:32:00,64.0,52.0,-100.00,WNW,300,12.0,24.0,64,0.00,,,0.00,982.000000,,2013-04-22 01:32:00,
2013-04-21 15:41:00,64.0,52.0,-100.00,WNW,300,12.0,24.0,64,0.00,,,0.00,982.000000,,2013-04-22 01:41:00,
2013-04-21 15:52:00,64.0,52.0,-100.00,WNW,300,12.0,24.0,64,0.00,,,0.00,982.000000,,2013-04-22 01:52:00,
2013-04-21 16:21:00,61.0,50.0,-100.00,WNW,295,12.0,21.0,68,0.00,,,0.00,513.000000,,2013-04-22 02:21:00,
2013-04-21 16:32:00,61.0,50.0,-100.00,WNW,295,12.0,21.0,68,0.00,,,0.00,513.000000,,2013-04-22 02:32:00,
2013-04-21 16:42:00,61.0,50.0,-100.00,WNW,295,12.0,21.0,68,0.00,,,0.00,513.000000,,2013-04-22 02:42:00,
2013-04-21 16:51:00,61.0,50.0,-100.00,WNW,295,12.0,21.0,68,0.00,,,0.00,513.000000,,2013-04-22 02:51:00,
2013-04-21 17:22:00,63.0,52.0,-100.00,WNW,287,11.0,21.0,67,0.00,,,0.00,412.000000,,2013-04-22 03:22:00,
2013-04-21 17:33:00,63.0,52.0,-100.00,WNW,287,11.0,21.0,67,0.00,,,0.00,412.000000,,2013-04-22 03:33:00,
2013-04-21 17:42:00,63.0,52.0,-100.00,WNW,287,11.0,21.0,67,0.00,,,0.00,412.000000,,2013-04-22 03:42:00,
2013-04-21 17:52:00,63.0,52.0,-100.00,WNW,287,11.0,21.0,67,0.00,,,0.00,412.000000,,2013-04-22 03:52:00,
2013-04-21 18:23:00,59.0,51.0,-100.00,NNW,328,9.0,18.0,75,0.00,,,0.00,283.000000,,2013-04-22 04:23:00,
2013-04-21 18:32:00,59.0,51.0,-100.00,NNW,328,9.0,18.0,75,0.00,,,0.00,283.000000,,2013-04-22 04:32:00,
2013-04-21 18:43:00,59.0,51.0,-100.00,NNW,328,9.0,18.0,75,0.00,,,0.00,283.000000,,2013-04-22 04:43:00,
2013-04-21 18:52:00,59.0,51.0,-100.00,NNW,328,9.0,18.0,75,0.00,,,0.00,283.000000,,2013-04-22 04:52:00,
2013-04-21 19:22:00,56.0,51.0,-100.00,NW,310,7.0,17.0,83,0.00,,,0.00,32.000000,,2013-04-22 05:22:00,
2013-04-21 19:32:00,56.0,51.0,-100.00,NW,310,7.0,17.0,83,0.00,,,0.00,32.000000,,2013-04-22 05:32:00,
2013-04-21 19:42:00,56.0,51.0,-100.00,NW,310,7.0,17.0,83,0.00,,,0.00,32.000000,,2013-04-22 05:42:00,
2013-04-21 19:52:00,56.0,51.0,-100.00,NW,310,7.0,17.0,83,0.00,,,0.00,32.000000,,2013-04-22 05:52:00,
2013-04-21 20:21:00,54.0,50.0,-100.00,NW,315,3.0,10.0,86,0.00,,,0.00,0.000000,,2013-04-22 06:21:00,
2013-04-21 20:32:00,54.0,50.0,-100.00,NW,315,3.0,10.0,86,0.00,,,0.00,0.000000,,2013-04-22 06:32:00,
2013-04-21 20:42:00,54.0,50.0,-100.00,NW,315,3.0,10.0,86,0.00,,,0.00,0.000000,,2013-04-22 06:42:00,
2013-04-21 20:51:00,54.0,50.0,-100.00,NW,315,3.0,10.0,86,0.00,,,0.00,0.000000,,2013-04-22 06:51:00,
2013-04-21 21:21:00,50.0,48.0,-100.00,North,358,2.0,6.0,94,0.00,,,0.00,0.000000,,2013-04-22 07:21:00,
2013-04-21 21:32:00,50.0,48.0,-100.00,North,358,2.0,6.0,94,0.00,,,0.00,0.000000,,2013-04-22 07:32:00,
2013-04-21 21:42:00,50.0,48.0,-100.00,North,358,2.0,6.0,94,0.00,,,0.00,0.000000,,2013-04-22 07:42:00,
2013-04-21 21:52:00,50.0,48.0,-100.00,North,358,2.0,6.0,94,0.00,,,0.00,0.000000,,2013-04-22 07:52:00,
2013-04-21 22:22:00,53.0,51.0,-100.00,ESE,116,6.0,12.0,93,0.00,,,-99.99,0.000000,,2013-04-22 08:22:00,
2013-04-21 22:32:00,53.0,51.0,-100.00,ESE,116,6.0,12.0,93,0.00,,,-99.99,0.000000,,2013-04-22 08:32:00,
2013-04-21 22:42:00,53.0,51.0,-100.00,ESE,116,6.0,12.0,93,0.00,,,-99.99,0.000000,,2013-04-22 08:42:00,
2013-04-21 22:52:00,53.0,51.0,-100.00,ESE,116,6.0,12.0,93,0.00,,,-99.99,0.000000,,2013-04-22 08:52:00,
2013-04-21 23:21:00,51.0,48.0,-100.00,NE,56,1.0,9.0,90,0.00,,,0.00,0.000000,,2013-04-22 09:21:00,
2013-04-21 23:33:00,51.0,48.0,-100.00,NE,56,1.0,9.0,90,0.00,,,0.00,0.000000,,2013-04-22 09:33:00,
2013-04-21 23:42:00,51.0,48.0,-100.00,NE,56,1.0,9.0,90,0.00,,,0.00,0.000000,,2013-04-22 09:42:00,
2013-04-21 23:52:00,51.0,48.0,-100.00,NE,56,1.0,9.0,90,0.00,,,0.00,0.000000,,2013-04-22 09:52:00,